createdAt,value
2017-08-20T00:00:02.761Z,15.10
2017-08-20T00:02:30.268Z,15.30
2017-08-20T00:04:58.572Z,15.40
2017-08-20T00:07:26.126Z,15.30
2017-08-20T00:09:53.672Z,15.40
2017-08-20T00:12:21.232Z,15.40
2017-08-20T00:14:49.552Z,15.40
2017-08-20T00:17:17.075Z,15.40
2017-08-20T00:19:44.587Z,15.30
2017-08-20T00:22:12.135Z,15.40
2017-08-20T00:24:39.802Z,15.40
2017-08-20T00:27:07.413Z,15.40
2017-08-20T00:29:35.780Z,15.30
2017-08-20T00:32:04.063Z,15.20
2017-08-20T00:34:31.672Z,15.20
2017-08-20T00:36:59.260Z,15.10
2017-08-20T00:39:26.776Z,15.10
2017-08-20T00:41:54.332Z,15.10
2017-08-20T00:44:21.840Z,15.20
2017-08-20T00:46:49.460Z,15.30
2017-08-20T00:49:17.020Z,15.40
2017-08-20T00:51:44.524Z,15.50
2017-08-20T00:54:12.032Z,15.60
2017-08-20T00:56:39.575Z,15.40
2017-08-20T00:59:07.112Z,15.30
2017-08-20T01:01:34.672Z,15.50
2017-08-20T01:04:02.231Z,15.40
2017-08-20T01:06:29.744Z,15.20
2017-08-20T01:08:57.288Z,15.20
2017-08-20T01:11:24.795Z,15.40
2017-08-20T01:13:52.339Z,15.30
2017-08-20T01:16:19.847Z,15.30
2017-08-20T01:18:48.148Z,14.80
2017-08-20T01:21:15.688Z,14.70
2017-08-20T01:23:43.244Z,14.90
2017-08-20T01:26:11.604Z,14.80
2017-08-20T01:28:39.144Z,14.80
2017-08-20T01:31:06.662Z,14.90
2017-08-20T01:33:34.200Z,14.80
2017-08-20T01:36:01.716Z,14.70
2017-08-20T01:38:29.259Z,14.60
2017-08-20T01:40:56.811Z,14.80
2017-08-20T01:43:24.328Z,14.90
2017-08-20T01:45:51.919Z,14.90
2017-08-20T01:48:19.431Z,14.90
2017-08-20T01:50:46.955Z,14.90
2017-08-20T01:53:14.510Z,15.00
2017-08-20T01:55:42.027Z,14.80
2017-08-20T01:58:09.551Z,14.80
2017-08-20T02:00:45.848Z,14.70
2017-08-20T02:03:13.349Z,14.70
2017-08-20T02:05:40.898Z,14.50
2017-08-20T02:08:08.423Z,14.70
2017-08-20T02:10:35.970Z,14.70
2017-08-20T02:13:03.506Z,14.80
2017-08-20T02:15:31.017Z,14.80
2017-08-20T02:17:58.579Z,14.80
2017-08-20T02:20:26.160Z,14.70
2017-08-20T02:22:53.663Z,14.70
2017-08-20T02:25:21.216Z,14.50
2017-08-20T02:27:48.776Z,14.50
2017-08-20T02:30:16.339Z,14.60
2017-08-20T02:32:43.847Z,14.60
2017-08-20T02:35:12.124Z,14.40
2017-08-20T02:37:40.433Z,14.70
2017-08-20T02:40:07.976Z,14.60
2017-08-20T02:42:35.528Z,14.40
2017-08-20T02:45:03.806Z,14.50
2017-08-20T02:47:32.149Z,14.60
2017-08-20T02:49:59.722Z,14.50
2017-08-20T02:52:27.283Z,14.60
2017-08-20T02:54:54.787Z,14.60
2017-08-20T02:57:22.374Z,14.70
2017-08-20T02:59:49.884Z,14.60
2017-08-20T03:02:18.160Z,14.50
2017-08-20T03:04:46.537Z,14.60
2017-08-20T03:07:14.116Z,14.50
2017-08-20T03:09:41.633Z,14.40
2017-08-20T03:12:09.142Z,14.40
2017-08-20T03:14:36.703Z,14.40
2017-08-20T03:17:04.229Z,14.40
2017-08-20T03:19:31.756Z,14.50
2017-08-20T03:21:59.304Z,14.60
2017-08-20T03:24:26.819Z,14.60
2017-08-20T03:26:55.220Z,14.60
2017-08-20T03:29:22.736Z,14.60
2017-08-20T03:31:50.245Z,14.30
2017-08-20T03:34:17.799Z,14.20
2017-08-20T03:36:45.430Z,14.30
2017-08-20T03:39:12.987Z,14.40
2017-08-20T03:41:41.305Z,14.50
2017-08-20T03:44:08.827Z,14.40
2017-08-20T03:46:36.427Z,14.60
2017-08-20T03:49:03.984Z,14.60
2017-08-20T03:51:31.495Z,14.50
2017-08-20T03:53:59.061Z,14.40
2017-08-20T03:56:27.355Z,14.30
2017-08-20T03:58:55.628Z,14.30
2017-08-20T04:01:23.952Z,14.10
2017-08-20T04:03:51.510Z,14.00
2017-08-20T04:06:19.022Z,14.20
2017-08-20T04:08:47.328Z,14.10
2017-08-20T04:11:14.836Z,14.00
2017-08-20T04:13:42.377Z,14.00
2017-08-20T04:16:09.887Z,14.00
2017-08-20T04:18:38.218Z,14.00
2017-08-20T04:21:05.727Z,14.00
2017-08-20T04:23:34.004Z,14.00
2017-08-20T04:26:01.565Z,13.90
2017-08-20T04:28:29.075Z,14.20
2017-08-20T04:30:56.597Z,14.20
2017-08-20T04:33:24.161Z,14.20
2017-08-20T04:35:51.698Z,14.30
2017-08-20T04:38:19.271Z,14.10
2017-08-20T04:40:46.779Z,14.00
2017-08-20T04:43:14.298Z,14.00
2017-08-20T04:45:41.852Z,13.80
2017-08-20T04:48:09.378Z,13.90
2017-08-20T04:50:36.980Z,13.80
2017-08-20T04:53:04.537Z,13.90
2017-08-20T04:55:32.070Z,13.90
2017-08-20T04:57:59.656Z,14.00
2017-08-20T05:00:27.167Z,14.10
2017-08-20T05:02:54.711Z,14.30
2017-08-20T05:05:22.262Z,14.50
2017-08-20T05:07:49.794Z,14.50
2017-08-20T05:10:17.362Z,14.50
2017-08-20T05:12:44.871Z,14.70
2017-08-20T05:15:12.379Z,14.80
2017-08-20T05:17:39.936Z,14.90
2017-08-20T05:20:07.509Z,15.00
2017-08-20T05:22:35.075Z,15.10
2017-08-20T05:25:02.839Z,15.30
2017-08-20T05:27:30.367Z,15.40
2017-08-20T05:29:58.693Z,15.50
2017-08-20T05:32:26.257Z,15.40
2017-08-20T05:34:53.763Z,15.50
2017-08-20T05:37:22.057Z,15.50
2017-08-20T05:39:49.582Z,15.40
2017-08-20T05:42:17.143Z,15.20
2017-08-20T05:44:44.651Z,15.50
2017-08-20T05:47:12.165Z,16.10
2017-08-20T05:49:39.724Z,16.30
2017-08-20T05:52:07.256Z,16.40
2017-08-20T05:54:34.795Z,16.30
2017-08-20T05:57:02.363Z,16.30
2017-08-20T05:59:29.906Z,16.20
2017-08-20T06:01:57.423Z,15.90
2017-08-20T06:04:25.839Z,15.60
2017-08-20T06:06:53.377Z,15.50
2017-08-20T06:09:20.942Z,15.90
2017-08-20T06:11:48.471Z,15.90
2017-08-20T06:14:16.040Z,16.10
2017-08-20T06:16:43.551Z,16.30
2017-08-20T06:19:11.083Z,16.40
2017-08-20T06:21:38.675Z,16.50
2017-08-20T06:24:06.183Z,16.50
2017-08-20T06:26:33.707Z,16.50
2017-08-20T06:29:01.260Z,16.80
2017-08-20T06:31:28.812Z,17.10
2017-08-20T06:33:56.365Z,17.40
2017-08-20T06:36:23.927Z,17.50
2017-08-20T06:38:51.521Z,17.80
2017-08-20T06:41:19.031Z,18.10
2017-08-20T06:43:47.361Z,18.00
2017-08-20T06:46:14.887Z,17.90
2017-08-20T06:48:42.415Z,18.20
2017-08-20T06:51:09.968Z,18.20
2017-08-20T06:53:37.475Z,18.40
2017-08-20T06:56:05.042Z,18.60
2017-08-20T06:58:32.598Z,18.80
2017-08-20T07:01:00.220Z,18.80
2017-08-20T07:03:28.539Z,18.80
2017-08-20T07:05:56.107Z,18.70
2017-08-20T07:08:23.648Z,18.90
2017-08-20T07:10:51.175Z,18.90
2017-08-20T07:13:19.482Z,18.80
2017-08-20T07:15:47.018Z,18.70
2017-08-20T07:18:15.334Z,18.40
2017-08-20T07:20:42.842Z,18.40
2017-08-20T07:23:10.400Z,18.80
2017-08-20T07:25:37.943Z,19.00
2017-08-20T07:28:05.488Z,19.10
2017-08-20T07:30:33.080Z,19.30
2017-08-20T07:33:00.783Z,19.30
2017-08-20T07:35:28.384Z,19.20
2017-08-20T07:37:55.973Z,19.30
2017-08-20T07:40:24.310Z,19.70
2017-08-20T07:42:51.860Z,19.60
2017-08-20T07:45:19.379Z,19.90
2017-08-20T07:47:47.711Z,20.60
2017-08-20T07:50:15.239Z,20.50
2017-08-20T07:52:42.743Z,20.60
2017-08-20T07:55:10.287Z,20.80
2017-08-20T07:57:37.828Z,21.00
2017-08-20T08:00:05.362Z,21.20
2017-08-20T08:02:33.792Z,21.30
2017-08-20T08:05:01.339Z,21.20
2017-08-20T08:07:28.932Z,20.80
2017-08-20T08:09:56.494Z,20.90
2017-08-20T08:12:24.004Z,21.00
2017-08-20T08:14:51.545Z,20.80
2017-08-20T08:17:19.864Z,20.30
2017-08-20T08:19:47.376Z,20.20
2017-08-20T08:22:15.659Z,20.90
2017-08-20T08:24:44.004Z,20.90
2017-08-20T08:27:11.516Z,20.90
2017-08-20T08:29:39.059Z,21.30
2017-08-20T08:32:07.391Z,20.50
2017-08-20T08:34:34.945Z,20.40
2017-08-20T08:37:02.467Z,20.30
2017-08-20T08:39:29.983Z,20.50
2017-08-20T08:41:57.527Z,20.20
2017-08-20T08:44:25.066Z,19.70
2017-08-20T08:46:52.639Z,19.50
2017-08-20T08:49:20.157Z,19.70
2017-08-20T08:51:48.431Z,20.80
2017-08-20T08:54:15.995Z,20.80
2017-08-20T08:56:44.280Z,21.30
2017-08-20T08:59:11.831Z,21.20
2017-08-20T09:01:40.106Z,20.80
2017-08-20T09:04:08.593Z,20.80
2017-08-20T09:06:36.907Z,21.10
2017-08-20T09:09:04.431Z,21.00
2017-08-20T09:11:32.743Z,20.50
2017-08-20T09:14:00.246Z,20.40
2017-08-20T09:16:27.806Z,20.50
2017-08-20T09:18:55.315Z,21.00
2017-08-20T09:21:22.831Z,21.50
2017-08-20T09:23:51.150Z,21.40
2017-08-20T09:26:18.683Z,21.30
2017-08-20T09:28:46.237Z,21.30
2017-08-20T09:31:14.556Z,22.00
2017-08-20T09:33:42.073Z,22.00
2017-08-20T09:36:09.627Z,22.30
2017-08-20T09:38:37.143Z,22.60
2017-08-20T09:41:04.738Z,23.00
2017-08-20T09:43:32.260Z,22.90
2017-08-20T09:45:59.779Z,22.60
2017-08-20T09:48:28.084Z,22.10
2017-08-20T09:50:55.608Z,22.00
2017-08-20T09:53:23.920Z,22.70
2017-08-20T09:55:51.430Z,22.70
2017-08-20T09:58:19.000Z,22.50
2017-08-20T10:00:46.507Z,22.10
2017-08-20T10:03:14.015Z,21.90
2017-08-20T10:05:41.575Z,22.30
2017-08-20T10:08:09.143Z,22.60
2017-08-20T10:10:37.435Z,22.90
2017-08-20T10:13:05.751Z,23.10
2017-08-20T10:15:33.319Z,23.00
2017-08-20T10:18:00.863Z,23.10
2017-08-20T10:20:28.428Z,23.50
2017-08-20T10:22:55.962Z,23.50
2017-08-20T10:25:23.471Z,23.80
2017-08-20T10:27:51.088Z,23.90
2017-08-20T10:30:18.599Z,23.90
2017-08-20T10:32:46.947Z,23.70
2017-08-20T10:35:14.553Z,23.60
2017-08-20T10:37:42.875Z,23.60
2017-08-20T10:40:10.384Z,23.60
2017-08-20T10:42:37.915Z,23.30
2017-08-20T10:45:05.455Z,23.10
2017-08-20T10:47:32.963Z,23.30
2017-08-20T10:50:00.525Z,23.60
2017-08-20T10:52:28.035Z,23.80
2017-08-20T10:54:55.560Z,24.20
2017-08-20T10:57:23.891Z,24.80
2017-08-20T10:59:51.459Z,24.70
2017-08-20T11:02:18.971Z,25.20
2017-08-20T11:04:46.515Z,25.60
2017-08-20T11:07:14.815Z,25.20
2017-08-20T11:09:42.359Z,25.20
2017-08-20T11:12:09.867Z,24.40
2017-08-20T11:14:37.489Z,23.70
2017-08-20T11:17:05.043Z,23.00
2017-08-20T11:19:33.417Z,23.30
2017-08-20T11:22:01.707Z,23.70
2017-08-20T11:24:29.231Z,23.70
2017-08-20T11:26:56.800Z,24.20
2017-08-20T11:29:24.328Z,24.70
2017-08-20T11:31:51.886Z,24.90
2017-08-20T11:34:19.391Z,24.90
2017-08-20T11:36:46.940Z,25.20
2017-08-20T11:39:14.491Z,25.40
2017-08-20T11:41:42.044Z,25.60
2017-08-20T11:44:09.543Z,25.70
2017-08-20T11:46:37.051Z,25.70
2017-08-20T11:49:04.664Z,26.00
2017-08-20T11:51:32.946Z,24.60
2017-08-20T11:54:00.452Z,24.50
2017-08-20T11:56:27.991Z,24.20
2017-08-20T11:58:55.530Z,24.40
2017-08-20T12:01:23.098Z,24.80
2017-08-20T12:03:50.627Z,25.20
2017-08-20T12:06:18.135Z,25.50
2017-08-20T12:08:45.699Z,25.70
2017-08-20T12:11:13.227Z,25.10
2017-08-20T12:13:40.740Z,24.60
2017-08-20T12:16:08.292Z,24.20
2017-08-20T12:18:35.851Z,23.90
2017-08-20T12:21:04.216Z,24.70
2017-08-20T12:23:31.728Z,24.60
2017-08-20T12:26:00.045Z,24.90
2017-08-20T12:28:27.559Z,24.80
2017-08-20T12:30:55.134Z,24.80
2017-08-20T12:33:23.424Z,24.90
2017-08-20T12:35:50.972Z,24.90
2017-08-20T12:38:19.319Z,23.90
2017-08-20T12:40:46.855Z,23.80
2017-08-20T12:43:14.422Z,23.50
2017-08-20T12:45:41.963Z,23.30
2017-08-20T12:48:09.520Z,23.30
2017-08-20T12:50:37.072Z,23.30
2017-08-20T12:53:04.591Z,23.40
2017-08-20T12:55:32.132Z,23.10
2017-08-20T12:57:59.676Z,22.90
2017-08-20T13:00:27.219Z,22.70
2017-08-20T13:02:54.798Z,22.50
2017-08-20T13:05:22.307Z,22.40
2017-08-20T13:07:50.615Z,22.20
2017-08-20T13:10:18.119Z,22.20
2017-08-20T13:12:45.943Z,22.10
2017-08-20T13:15:13.460Z,21.90
2017-08-20T13:17:40.972Z,21.80
2017-08-20T13:20:08.548Z,21.90
2017-08-20T13:22:36.066Z,22.00
2017-08-20T13:25:03.596Z,22.00
2017-08-20T13:27:31.139Z,22.00
2017-08-20T13:29:58.647Z,22.10
2017-08-20T13:32:26.983Z,22.10
2017-08-20T13:34:54.591Z,22.10
2017-08-20T13:37:22.181Z,21.90
2017-08-20T13:39:49.752Z,21.90
2017-08-20T13:42:17.260Z,22.00
2017-08-20T13:44:45.659Z,22.00
2017-08-20T13:47:13.215Z,22.00
2017-08-20T13:49:40.744Z,22.00
2017-08-20T13:52:08.296Z,21.90
2017-08-20T13:54:35.818Z,21.90
2017-08-20T13:57:03.381Z,21.70
2017-08-20T13:59:30.920Z,21.60
2017-08-20T14:01:58.479Z,21.50
2017-08-20T14:04:26.015Z,21.50
2017-08-20T14:06:54.411Z,21.30
2017-08-20T14:09:21.930Z,21.20
2017-08-20T14:11:49.439Z,21.30
2017-08-20T14:14:17.015Z,21.20
2017-08-20T14:16:44.639Z,21.20
2017-08-20T14:19:13.005Z,21.10
2017-08-20T14:21:40.551Z,21.10
2017-08-20T14:24:08.066Z,21.20
2017-08-20T14:26:35.612Z,21.20
2017-08-20T14:29:03.151Z,21.20
2017-08-20T14:31:31.476Z,21.00
2017-08-20T14:33:59.022Z,20.90
2017-08-20T14:36:27.259Z,20.90
2017-08-20T14:38:54.990Z,20.90
2017-08-20T14:41:22.576Z,21.10
2017-08-20T14:43:50.119Z,21.20
2017-08-20T14:46:17.628Z,21.10
2017-08-20T14:48:45.349Z,21.00
2017-08-20T14:51:12.864Z,20.90
2017-08-20T14:53:40.387Z,20.80
2017-08-20T14:56:08.698Z,20.70
2017-08-20T14:58:36.255Z,20.70
2017-08-20T15:01:03.861Z,20.70
2017-08-20T15:03:31.411Z,20.60
2017-08-20T15:05:59.101Z,20.70
2017-08-20T15:08:32.477Z,20.70
2017-08-20T15:11:00.027Z,20.90
2017-08-20T15:13:27.539Z,20.80
2017-08-20T15:15:55.823Z,21.10
2017-08-20T15:18:24.175Z,21.20
2017-08-20T15:20:51.683Z,21.10
2017-08-20T15:23:19.231Z,21.20
2017-08-20T15:25:46.895Z,21.10
2017-08-20T15:28:14.428Z,21.00
2017-08-20T15:30:41.960Z,20.80
2017-08-20T15:33:09.515Z,20.70
2017-08-20T15:35:37.033Z,20.60
2017-08-20T15:38:04.612Z,20.60
2017-08-20T15:40:32.171Z,20.60
2017-08-20T15:42:59.683Z,20.50
2017-08-20T15:45:27.236Z,20.20
2017-08-20T15:47:54.783Z,20.00
2017-08-20T15:50:22.334Z,20.00
2017-08-20T15:52:49.921Z,19.90
2017-08-20T15:55:17.491Z,19.70
2017-08-20T15:57:45.219Z,19.60
2017-08-20T16:00:12.755Z,19.70
2017-08-20T16:02:40.328Z,19.50
2017-08-20T16:05:09.519Z,19.70
2017-08-20T16:07:37.047Z,19.60
2017-08-20T16:10:05.363Z,19.40
2017-08-20T16:12:32.891Z,19.30
2017-08-20T16:15:01.301Z,19.30
2017-08-20T16:17:28.872Z,19.30
2017-08-20T16:19:56.395Z,19.20
2017-08-20T16:22:23.908Z,19.20
2017-08-20T16:24:51.461Z,19.10
2017-08-20T16:27:18.983Z,19.20
2017-08-20T16:29:46.566Z,19.20
2017-08-20T16:32:14.135Z,19.20
2017-08-20T16:34:41.708Z,19.20
2017-08-20T16:37:09.211Z,19.10
2017-08-20T16:39:36.782Z,19.00
2017-08-20T16:42:04.295Z,18.80
2017-08-20T16:44:31.804Z,18.80
2017-08-20T16:46:59.344Z,18.80
2017-08-20T16:49:27.636Z,18.60
2017-08-20T16:51:55.176Z,18.50
2017-08-20T16:54:23.459Z,18.50
2017-08-20T16:56:51.880Z,18.40
2017-08-20T16:59:19.412Z,18.30
2017-08-20T17:01:47.786Z,18.10
2017-08-20T17:04:16.103Z,18.00
2017-08-20T17:06:43.612Z,17.90
2017-08-20T17:09:11.884Z,18.00
2017-08-20T17:11:39.427Z,18.00
2017-08-20T17:14:07.059Z,18.10
2017-08-20T17:16:34.615Z,18.00
2017-08-20T17:19:02.121Z,18.00
2017-08-20T17:21:29.695Z,17.90
2017-08-20T17:23:57.991Z,17.70
2017-08-20T17:26:25.528Z,17.60
2017-08-20T17:28:53.887Z,17.60
2017-08-20T17:31:21.443Z,17.60
2017-08-20T17:33:48.978Z,17.60
2017-08-20T17:36:16.497Z,17.40
2017-08-20T17:38:44.068Z,17.30
2017-08-20T17:41:11.585Z,17.20
2017-08-20T17:43:39.141Z,17.10
2017-08-20T17:46:06.669Z,17.00
2017-08-20T17:48:34.200Z,17.00
2017-08-20T17:51:02.511Z,16.90
2017-08-20T17:53:30.039Z,16.80
2017-08-20T17:55:58.391Z,16.70
2017-08-20T17:58:25.943Z,16.70
2017-08-20T18:00:53.455Z,16.70
2017-08-20T18:03:21.018Z,16.90
2017-08-20T18:05:48.551Z,16.90
2017-08-20T18:08:16.879Z,16.80
2017-08-20T18:10:44.407Z,16.70
2017-08-20T18:13:11.932Z,17.10
2017-08-20T18:15:39.492Z,17.20
2017-08-20T18:18:07.004Z,17.10
2017-08-20T18:20:34.524Z,17.00
2017-08-20T18:23:02.072Z,16.70
2017-08-20T18:25:29.623Z,16.60
2017-08-20T18:27:57.166Z,16.60
2017-08-20T18:30:24.683Z,16.30
2017-08-20T18:32:52.240Z,16.10
2017-08-20T18:35:19.775Z,16.00
2017-08-20T18:37:47.292Z,16.30
2017-08-20T18:40:14.844Z,16.40
2017-08-20T18:42:42.360Z,16.20
2017-08-20T18:45:09.920Z,16.00
2017-08-20T18:47:38.255Z,15.70
2017-08-20T18:50:05.767Z,15.60
2017-08-20T18:52:34.047Z,16.10
2017-08-20T18:55:02.365Z,16.00
2017-08-20T18:57:29.874Z,15.90
2017-08-20T18:59:58.200Z,15.80
2017-08-20T19:02:25.711Z,15.70
2017-08-20T19:04:54.050Z,15.40
2017-08-20T19:07:21.595Z,15.30
2017-08-20T19:09:49.107Z,15.40
2017-08-20T19:12:17.444Z,15.30
2017-08-20T19:14:44.951Z,15.20
2017-08-20T19:17:12.464Z,15.40
2017-08-20T19:19:40.003Z,15.30
2017-08-20T19:22:07.514Z,15.40
2017-08-20T19:24:35.066Z,15.50
2017-08-20T19:27:02.576Z,15.60
2017-08-20T19:29:30.139Z,15.70
2017-08-20T19:31:57.698Z,15.70
2017-08-20T19:34:25.295Z,15.80
2017-08-20T19:36:52.816Z,16.10
2017-08-20T19:39:20.332Z,15.90
2017-08-20T19:41:47.925Z,15.80
2017-08-20T19:44:15.432Z,15.60
2017-08-20T19:46:42.942Z,15.80
2017-08-20T19:49:10.491Z,15.90
2017-08-20T19:51:38.015Z,15.60
2017-08-20T19:54:05.639Z,15.40
2017-08-20T19:56:33.176Z,15.20
2017-08-20T19:59:01.544Z,15.10
2017-08-20T20:01:29.839Z,15.20
2017-08-20T20:03:58.123Z,15.20
2017-08-20T20:06:25.691Z,15.10
2017-08-20T20:08:53.212Z,14.90
2017-08-20T20:11:20.732Z,15.00
2017-08-20T20:13:48.323Z,15.20
2017-08-20T20:16:15.852Z,15.30
2017-08-20T20:18:43.368Z,15.40
2017-08-20T20:21:11.687Z,15.70
2017-08-20T20:23:39.203Z,15.70
2017-08-20T20:26:07.492Z,15.40
2017-08-20T20:28:35.847Z,15.50
2017-08-20T20:31:03.350Z,15.40
2017-08-20T20:33:30.995Z,15.50
2017-08-20T20:35:58.571Z,15.60
2017-08-20T20:38:26.090Z,15.30
2017-08-20T20:40:53.644Z,15.20
2017-08-20T20:43:21.228Z,15.10
2017-08-20T20:45:48.779Z,15.20
2017-08-20T20:48:17.109Z,15.60
2017-08-20T20:50:44.743Z,15.50
2017-08-20T20:53:12.248Z,15.70
2017-08-20T20:55:39.799Z,15.60
2017-08-20T20:58:07.320Z,15.60
2017-08-20T21:00:34.832Z,15.90
2017-08-20T21:03:02.386Z,15.80
2017-08-20T21:05:29.895Z,15.50
2017-08-20T21:07:57.442Z,15.50
2017-08-20T21:10:24.991Z,15.30
2017-08-20T21:12:53.320Z,15.00
2017-08-20T21:15:20.887Z,15.00
2017-08-20T21:17:48.411Z,15.00
2017-08-20T21:20:16.050Z,15.00
2017-08-20T21:22:43.611Z,15.00
2017-08-20T21:25:11.955Z,15.40
2017-08-20T21:27:39.463Z,15.30
2017-08-20T21:30:07.754Z,15.10
2017-08-20T21:32:35.408Z,15.00
2017-08-20T21:35:02.923Z,14.90
2017-08-20T21:37:30.500Z,14.90
2017-08-20T21:39:58.089Z,14.80
2017-08-20T21:42:25.648Z,14.70
2017-08-20T21:44:53.960Z,14.80
2017-08-20T21:47:21.475Z,14.80
2017-08-20T21:49:49.790Z,14.90
2017-08-20T21:52:21.799Z,14.90
2017-08-20T21:54:49.483Z,14.80
2017-08-20T21:57:17.007Z,14.80
2017-08-20T21:59:44.550Z,14.90
2017-08-20T22:02:12.098Z,14.90
2017-08-20T22:04:39.689Z,15.20
2017-08-20T22:07:07.230Z,15.30
2017-08-20T22:09:34.843Z,15.00
2017-08-20T22:12:02.434Z,14.90
2017-08-20T22:14:29.956Z,15.00
2017-08-20T22:16:57.529Z,14.90
2017-08-20T22:19:25.807Z,14.50
2017-08-20T22:21:54.143Z,14.50
2017-08-20T22:24:21.654Z,14.40
2017-08-20T22:26:49.968Z,14.20
2017-08-20T22:29:17.540Z,14.10
2017-08-20T22:31:45.051Z,14.10
2017-08-20T22:34:12.723Z,14.20
2017-08-20T22:36:40.239Z,14.30
2017-08-20T22:39:07.766Z,14.40
2017-08-20T22:41:35.313Z,14.20
2017-08-20T22:44:02.939Z,14.00
2017-08-20T22:46:30.451Z,14.00
2017-08-20T22:48:58.053Z,14.10
2017-08-20T22:51:25.607Z,13.80
2017-08-20T22:53:53.127Z,13.90
2017-08-20T22:56:20.648Z,14.00
2017-08-20T22:58:48.243Z,13.90
2017-08-20T23:01:15.776Z,13.90
2017-08-20T23:03:44.106Z,13.60
2017-08-20T23:06:11.715Z,13.50
2017-08-20T23:08:39.236Z,13.40
2017-08-20T23:11:06.795Z,13.50
2017-08-20T23:13:34.395Z,13.40
2017-08-20T23:16:02.711Z,13.40
2017-08-20T23:18:30.263Z,13.30
2017-08-20T23:20:57.875Z,13.40
2017-08-20T23:23:25.399Z,13.60
2017-08-20T23:25:52.943Z,13.60
2017-08-20T23:28:20.471Z,13.50
2017-08-20T23:30:48.053Z,13.50
2017-08-20T23:33:15.577Z,13.30
2017-08-20T23:35:43.108Z,13.40
2017-08-20T23:38:10.656Z,13.50
2017-08-20T23:40:38.220Z,13.60
2017-08-20T23:43:05.785Z,13.50
2017-08-20T23:45:33.304Z,13.30
2017-08-20T23:48:01.615Z,13.70
2017-08-20T23:50:29.139Z,13.60
2017-08-20T23:52:56.768Z,14.00
2017-08-20T23:55:24.284Z,14.00
2017-08-20T23:57:51.840Z,14.00
